createdAt,value
2022-11-25T00:07:21.381Z,83.90152
2022-11-25T00:22:23.782Z,9.58875
2022-11-25T00:37:26.230Z,1.19859
2022-11-25T00:52:28.586Z,0
2022-11-25T01:07:31.370Z,0
2022-11-25T01:22:33.753Z,0
2022-11-25T01:37:36.180Z,0
2022-11-25T01:52:38.758Z,0
2022-11-25T02:07:41.320Z,0
2022-11-25T02:22:43.619Z,0
2022-11-25T02:37:45.785Z,0
2022-11-25T02:52:48.132Z,0
2022-11-25T03:07:50.396Z,0
2022-11-25T03:22:52.781Z,0
2022-11-25T03:37:55.318Z,0
2022-11-25T03:52:57.814Z,0
2022-11-25T04:08:00.313Z,0
2022-11-25T04:23:02.733Z,0
2022-11-25T04:38:05.230Z,0
2022-11-25T04:53:07.545Z,0
2022-11-25T05:08:09.797Z,0
2022-11-25T05:23:12.969Z,0
2022-11-25T05:38:15.376Z,0
2022-11-25T05:53:18.018Z,0
2022-11-25T06:08:20.779Z,0
2022-11-25T06:23:23.396Z,0
2022-11-25T06:38:25.883Z,0
2022-11-25T06:53:28.207Z,0
2022-11-25T07:08:33.989Z,0
2022-11-25T07:23:37.213Z,0
2022-11-25T07:38:43.571Z,0
2022-11-25T07:53:48.869Z,0
2022-11-25T08:08:51.159Z,0
2022-11-25T08:23:53.598Z,0
2022-11-25T08:38:55.944Z,0
2022-11-25T08:53:58.563Z,0
2022-11-25T09:09:01.258Z,0
2022-11-25T09:24:03.745Z,0
2022-11-25T09:39:06.391Z,0
2022-11-25T09:54:08.675Z,0
2022-11-25T10:09:11.024Z,0
2022-11-25T10:24:13.210Z,0
2022-11-25T10:39:15.504Z,0
2022-11-25T10:54:19.527Z,0
2022-11-25T11:09:23.925Z,0
2022-11-25T11:24:26.194Z,0
2022-11-25T11:39:28.395Z,0
2022-11-25T11:54:30.761Z,0
2022-11-25T12:09:33.037Z,0
2022-11-25T12:24:35.830Z,0
2022-11-25T12:39:38.230Z,0
2022-11-25T12:54:40.492Z,0
2022-11-25T13:09:42.796Z,0
2022-11-25T13:24:44.997Z,0
2022-11-25T13:39:47.249Z,0
2022-11-25T13:54:49.502Z,0
2022-11-25T14:09:52.069Z,0
2022-11-25T14:24:54.248Z,0
2022-11-25T14:39:56.590Z,0
2022-11-25T14:54:59.112Z,4.79437
2022-11-25T15:10:01.437Z,45.54654
2022-11-25T15:25:03.744Z,95.88745
2022-11-25T15:40:06.006Z,173.79601
2022-11-25T15:55:08.273Z,342.79764
2022-11-25T16:10:10.629Z,532.17535
2022-11-25T16:25:13.036Z,514.19647
2022-11-25T16:40:15.362Z,672.41077
2022-11-25T16:55:17.649Z,868.98004
2022-11-25T17:10:19.879Z,828.22784
2022-11-25T17:25:22.124Z,1113.49304
2022-11-25T17:40:24.326Z,1421.53149
2022-11-25T17:55:26.615Z,1416.73706
2022-11-25T18:10:28.928Z,1815.86865
2022-11-25T18:25:31.167Z,2069.97046
2022-11-25T18:40:33.429Z,2358.8313
2022-11-25T18:55:35.639Z,1922.54346
2022-11-25T19:10:37.860Z,1921.34485
2022-11-25T19:25:40.039Z,1462.28369
2022-11-25T19:40:42.242Z,1272.90588
2022-11-25T19:55:44.658Z,1658.85291
2022-11-25T20:10:46.871Z,1389.16943
2022-11-25T20:25:49.260Z,860.5899
2022-11-25T20:40:51.506Z,957.6759
2022-11-25T20:55:53.713Z,773.09259
2022-11-25T21:10:55.971Z,787.47571
2022-11-25T21:25:58.260Z,664.02063
2022-11-25T21:41:00.475Z,590.90643
2022-11-25T21:56:02.649Z,447.07526
2022-11-25T22:11:04.903Z,527.38098
2022-11-25T22:26:07.134Z,526.18237
2022-11-25T22:41:09.573Z,477.04007
2022-11-25T22:56:11.793Z,351.18781
2022-11-25T23:11:14.039Z,387.1456
2022-11-25T23:26:16.481Z,348.79062
2022-11-25T23:41:18.722Z,184.58334
2022-11-25T23:56:21.159Z,45.54654
